sensor_id;sensor_type;location;lat;lon;timestamp;temperature;humidity
820;DHT22;392;48.838;2.322;2022-11-20T00:00:24;10.00;44.70
820;DHT22;392;48.838;2.322;2022-11-20T00:02:51;9.90;45.70
820;DHT22;392;48.838;2.322;2022-11-20T00:05:19;9.90;45.90
820;DHT22;392;48.838;2.322;2022-11-20T00:07:46;9.90;46.20
820;DHT22;392;48.838;2.322;2022-11-20T00:10:14;9.90;45.90
820;DHT22;392;48.838;2.322;2022-11-20T00:12:41;9.90;45.30
820;DHT22;392;48.838;2.322;2022-11-20T00:15:10;9.90;45.30
820;DHT22;392;48.838;2.322;2022-11-20T00:17:37;9.80;45.60
820;DHT22;392;48.838;2.322;2022-11-20T00:20:05;9.80;45.70
820;DHT22;392;48.838;2.322;2022-11-20T00:22:33;9.80;45.60
820;DHT22;392;48.838;2.322;2022-11-20T00:25:00;9.80;45.60
820;DHT22;392;48.838;2.322;2022-11-20T00:27:27;9.80;45.60
820;DHT22;392;48.838;2.322;2022-11-20T00:29:55;9.80;45.70
820;DHT22;392;48.838;2.322;2022-11-20T00:32:23;9.80;46.50
820;DHT22;392;48.838;2.322;2022-11-20T00:34:51;9.70;45.50
820;DHT22;392;48.838;2.322;2022-11-20T00:37:18;9.70;45.60
820;DHT22;392;48.838;2.322;2022-11-20T00:39:45;9.70;45.60
820;DHT22;392;48.838;2.322;2022-11-20T00:42:13;9.70;45.40
820;DHT22;392;48.838;2.322;2022-11-20T00:44:40;9.70;45.30
820;DHT22;392;48.838;2.322;2022-11-20T00:47:07;9.60;45.30
820;DHT22;392;48.838;2.322;2022-11-20T00:49:36;9.60;45.40
820;DHT22;392;48.838;2.322;2022-11-20T00:52:03;9.60;45.50
820;DHT22;392;48.838;2.322;2022-11-20T00:54:31;9.60;45.50
820;DHT22;392;48.838;2.322;2022-11-20T00:56:58;9.60;45.40
820;DHT22;392;48.838;2.322;2022-11-20T00:59:25;9.60;45.40
820;DHT22;392;48.838;2.322;2022-11-20T01:01:53;9.50;45.30
820;DHT22;392;48.838;2.322;2022-11-20T01:04:20;9.50;45.50
820;DHT22;392;48.838;2.322;2022-11-20T01:06:49;9.50;45.20
820;DHT22;392;48.838;2.322;2022-11-20T01:09:16;9.50;45.40
820;DHT22;392;48.838;2.322;2022-11-20T01:11:44;9.50;45.30
820;DHT22;392;48.838;2.322;2022-11-20T01:14:13;9.40;45.10
820;DHT22;392;48.838;2.322;2022-11-20T01:16:44;9.40;45.30
820;DHT22;392;48.838;2.322;2022-11-20T01:19:15;9.30;45.70
820;DHT22;392;48.838;2.322;2022-11-20T01:21:46;9.20;45.90
820;DHT22;392;48.838;2.322;2022-11-20T01:24:18;9.20;46.10
820;DHT22;392;48.838;2.322;2022-11-20T01:26:48;9.20;46.20
820;DHT22;392;48.838;2.322;2022-11-20T01:29:18;9.20;46.00
820;DHT22;392;48.838;2.322;2022-11-20T01:31:47;9.20;46.10
820;DHT22;392;48.838;2.322;2022-11-20T01:34:16;9.20;46.10
820;DHT22;392;48.838;2.322;2022-11-20T01:36:45;9.10;46.30
820;DHT22;392;48.838;2.322;2022-11-20T01:39:16;9.10;46.50
820;DHT22;392;48.838;2.322;2022-11-20T01:41:45;9.00;46.90
820;DHT22;392;48.838;2.322;2022-11-20T01:44:52;8.90;47.30
820;DHT22;392;48.838;2.322;2022-11-20T01:47:25;8.90;47.30
820;DHT22;392;48.838;2.322;2022-11-20T01:49:58;8.90;47.50
820;DHT22;392;48.838;2.322;2022-11-20T01:52:32;8.90;48.00
820;DHT22;392;48.838;2.322;2022-11-20T01:55:06;8.90;47.90
820;DHT22;392;48.838;2.322;2022-11-20T01:57:36;8.90;48.10
820;DHT22;392;48.838;2.322;2022-11-20T02:00:07;8.80;48.00
820;DHT22;392;48.838;2.322;2022-11-20T02:02:41;8.80;48.40
820;DHT22;392;48.838;2.322;2022-11-20T02:05:16;8.70;48.70
820;DHT22;392;48.838;2.322;2022-11-20T02:07:46;8.70;48.70
820;DHT22;392;48.838;2.322;2022-11-20T02:10:16;8.70;48.70
820;DHT22;392;48.838;2.322;2022-11-20T02:12:43;8.70;48.70
820;DHT22;392;48.838;2.322;2022-11-20T02:15:29;8.60;48.60
820;DHT22;392;48.838;2.322;2022-11-20T02:17:57;8.60;49.00
820;DHT22;392;48.838;2.322;2022-11-20T02:20:24;8.60;49.00
820;DHT22;392;48.838;2.322;2022-11-20T02:22:56;8.60;48.70
820;DHT22;392;48.838;2.322;2022-11-20T02:25:28;8.60;48.60
820;DHT22;392;48.838;2.322;2022-11-20T02:27:57;8.60;48.60
820;DHT22;392;48.838;2.322;2022-11-20T02:30:24;8.60;48.60
820;DHT22;392;48.838;2.322;2022-11-20T02:32:52;8.60;48.60
820;DHT22;392;48.838;2.322;2022-11-20T02:35:41;8.60;48.60
820;DHT22;392;48.838;2.322;2022-11-20T02:38:10;8.60;48.60
820;DHT22;392;48.838;2.322;2022-11-20T02:40:39;8.60;48.60
820;DHT22;392;48.838;2.322;2022-11-20T02:43:07;8.60;48.60
820;DHT22;392;48.838;2.322;2022-11-20T02:45:35;8.60;48.50
820;DHT22;392;48.838;2.322;2022-11-20T02:48:02;8.60;48.50
820;DHT22;392;48.838;2.322;2022-11-20T02:50:30;8.60;48.30
820;DHT22;392;48.838;2.322;2022-11-20T02:52:57;8.50;48.30
820;DHT22;392;48.838;2.322;2022-11-20T02:55:24;8.50;48.40
820;DHT22;392;48.838;2.322;2022-11-20T02:57:53;8.50;48.50
820;DHT22;392;48.838;2.322;2022-11-20T03:00:20;8.50;48.40
820;DHT22;392;48.838;2.322;2022-11-20T03:02:48;8.50;48.50
820;DHT22;392;48.838;2.322;2022-11-20T03:05:15;8.50;48.50
820;DHT22;392;48.838;2.322;2022-11-20T03:07:43;8.50;49.10
820;DHT22;392;48.838;2.322;2022-11-20T03:10:11;8.50;49.50
820;DHT22;392;48.838;2.322;2022-11-20T03:12:38;8.50;49.90
820;DHT22;392;48.838;2.322;2022-11-20T03:15:08;8.50;50.00
820;DHT22;392;48.838;2.322;2022-11-20T03:17:36;8.50;50.30
820;DHT22;392;48.838;2.322;2022-11-20T03:20:04;8.50;50.20
820;DHT22;392;48.838;2.322;2022-11-20T03:22:32;8.60;50.30
820;DHT22;392;48.838;2.322;2022-11-20T03:24:59;8.60;50.30
820;DHT22;392;48.838;2.322;2022-11-20T03:27:26;8.60;50.20
820;DHT22;392;48.838;2.322;2022-11-20T03:29:54;8.60;50.40
820;DHT22;392;48.838;2.322;2022-11-20T03:32:22;8.60;50.30
820;DHT22;392;48.838;2.322;2022-11-20T03:34:49;8.60;50.30
820;DHT22;392;48.838;2.322;2022-11-20T03:37:17;8.60;50.40
820;DHT22;392;48.838;2.322;2022-11-20T03:39:44;8.60;50.30
820;DHT22;392;48.838;2.322;2022-11-20T03:42:11;8.60;50.40
820;DHT22;392;48.838;2.322;2022-11-20T03:44:53;8.50;50.30
820;DHT22;392;48.838;2.322;2022-11-20T03:47:21;8.50;50.20
820;DHT22;392;48.838;2.322;2022-11-20T03:49:49;8.50;50.20
820;DHT22;392;48.838;2.322;2022-11-20T03:52:17;8.50;50.40
820;DHT22;392;48.838;2.322;2022-11-20T03:54:44;8.50;50.40
820;DHT22;392;48.838;2.322;2022-11-20T03:57:11;8.50;50.40
820;DHT22;392;48.838;2.322;2022-11-20T03:59:38;8.40;50.60
820;DHT22;392;48.838;2.322;2022-11-20T04:02:06;8.40;50.70
820;DHT22;392;48.838;2.322;2022-11-20T04:04:34;8.40;51.40
820;DHT22;392;48.838;2.322;2022-11-20T04:07:02;8.40;50.90
820;DHT22;392;48.838;2.322;2022-11-20T04:09:29;8.40;51.00
820;DHT22;392;48.838;2.322;2022-11-20T04:11:57;8.40;51.20
820;DHT22;392;48.838;2.322;2022-11-20T04:14:24;8.40;51.30
820;DHT22;392;48.838;2.322;2022-11-20T04:16:51;8.40;51.40
820;DHT22;392;48.838;2.322;2022-11-20T04:19:19;8.40;51.40
820;DHT22;392;48.838;2.322;2022-11-20T04:21:47;8.50;51.40
820;DHT22;392;48.838;2.322;2022-11-20T04:24:15;8.50;51.20
820;DHT22;392;48.838;2.322;2022-11-20T04:26:42;8.50;50.80
820;DHT22;392;48.838;2.322;2022-11-20T04:29:10;8.60;50.50
820;DHT22;392;48.838;2.322;2022-11-20T04:31:38;8.60;50.00
820;DHT22;392;48.838;2.322;2022-11-20T04:34:06;8.60;49.70
820;DHT22;392;48.838;2.322;2022-11-20T04:36:34;8.60;49.80
820;DHT22;392;48.838;2.322;2022-11-20T04:39:05;8.60;49.70
820;DHT22;392;48.838;2.322;2022-11-20T04:41:35;8.60;49.60
820;DHT22;392;48.838;2.322;2022-11-20T04:44:04;8.60;49.60
820;DHT22;392;48.838;2.322;2022-11-20T04:46:34;8.60;49.70
820;DHT22;392;48.838;2.322;2022-11-20T04:49:03;8.60;49.50
820;DHT22;392;48.838;2.322;2022-11-20T04:51:31;8.60;50.30
820;DHT22;392;48.838;2.322;2022-11-20T04:53:58;8.60;49.50
820;DHT22;392;48.838;2.322;2022-11-20T04:56:27;8.60;49.40
820;DHT22;392;48.838;2.322;2022-11-20T04:58:54;8.60;49.80
820;DHT22;392;48.838;2.322;2022-11-20T05:01:23;8.50;50.00
820;DHT22;392;48.838;2.322;2022-11-20T05:03:51;8.50;50.30
820;DHT22;392;48.838;2.322;2022-11-20T05:06:20;8.50;50.40
820;DHT22;392;48.838;2.322;2022-11-20T05:08:49;8.50;50.50
820;DHT22;392;48.838;2.322;2022-11-20T05:11:18;8.50;50.60
820;DHT22;392;48.838;2.322;2022-11-20T05:13:48;8.50;50.50
820;DHT22;392;48.838;2.322;2022-11-20T05:16:17;8.50;50.30
820;DHT22;392;48.838;2.322;2022-11-20T05:18:46;8.60;50.20
820;DHT22;392;48.838;2.322;2022-11-20T05:21:14;8.60;49.60
820;DHT22;392;48.838;2.322;2022-11-20T05:23:42;8.60;49.90
820;DHT22;392;48.838;2.322;2022-11-20T05:26:13;8.60;49.20
820;DHT22;392;48.838;2.322;2022-11-20T05:28:42;8.60;49.20
820;DHT22;392;48.838;2.322;2022-11-20T05:31:12;8.60;49.00
820;DHT22;392;48.838;2.322;2022-11-20T05:33:41;8.60;49.00
820;DHT22;392;48.838;2.322;2022-11-20T05:36:10;8.60;48.60
820;DHT22;392;48.838;2.322;2022-11-20T05:38:38;8.60;48.60
820;DHT22;392;48.838;2.322;2022-11-20T05:41:07;8.60;48.60
820;DHT22;392;48.838;2.322;2022-11-20T05:43:36;8.60;48.60
820;DHT22;392;48.838;2.322;2022-11-20T05:46:07;8.60;48.60
820;DHT22;392;48.838;2.322;2022-11-20T05:48:37;8.60;48.70
820;DHT22;392;48.838;2.322;2022-11-20T05:51:07;8.60;48.60
820;DHT22;392;48.838;2.322;2022-11-20T05:53:36;8.50;48.50
820;DHT22;392;48.838;2.322;2022-11-20T05:56:05;8.50;49.10
820;DHT22;392;48.838;2.322;2022-11-20T05:58:35;8.40;49.50
820;DHT22;392;48.838;2.322;2022-11-20T06:01:06;8.30;50.30
820;DHT22;392;48.838;2.322;2022-11-20T06:03:36;8.20;51.20
820;DHT22;392;48.838;2.322;2022-11-20T06:06:05;8.10;51.90
820;DHT22;392;48.838;2.322;2022-11-20T06:08:33;8.10;52.30
820;DHT22;392;48.838;2.322;2022-11-20T06:11:04;8.00;52.70
820;DHT22;392;48.838;2.322;2022-11-20T06:13:32;8.00;53.20
820;DHT22;392;48.838;2.322;2022-11-20T06:15:59;7.90;53.70
820;DHT22;392;48.838;2.322;2022-11-20T06:18:27;7.90;54.60
820;DHT22;392;48.838;2.322;2022-11-20T06:21:03;7.90;54.30
820;DHT22;392;48.838;2.322;2022-11-20T06:23:34;7.80;54.50
820;DHT22;392;48.838;2.322;2022-11-20T06:26:02;7.80;55.00
820;DHT22;392;48.838;2.322;2022-11-20T06:28:30;7.80;55.10
820;DHT22;392;48.838;2.322;2022-11-20T06:30:58;7.80;55.60
820;DHT22;392;48.838;2.322;2022-11-20T06:33:26;7.70;56.50
820;DHT22;392;48.838;2.322;2022-11-20T06:35:56;7.60;56.00
820;DHT22;392;48.838;2.322;2022-11-20T06:38:25;7.60;57.00
820;DHT22;392;48.838;2.322;2022-11-20T06:40:53;7.60;57.30
820;DHT22;392;48.838;2.322;2022-11-20T06:43:21;7.60;57.30
820;DHT22;392;48.838;2.322;2022-11-20T06:45:52;7.50;58.00
820;DHT22;392;48.838;2.322;2022-11-20T06:48:19;7.40;58.40
820;DHT22;392;48.838;2.322;2022-11-20T06:50:47;7.40;58.80
820;DHT22;392;48.838;2.322;2022-11-20T06:53:14;7.40;59.10
820;DHT22;392;48.838;2.322;2022-11-20T06:55:43;7.40;59.40
820;DHT22;392;48.838;2.322;2022-11-20T06:58:11;7.30;59.60
820;DHT22;392;48.838;2.322;2022-11-20T07:00:39;7.40;60.00
820;DHT22;392;48.838;2.322;2022-11-20T07:03:07;7.40;59.80
820;DHT22;392;48.838;2.322;2022-11-20T07:05:36;7.40;59.90
820;DHT22;392;48.838;2.322;2022-11-20T07:08:04;7.40;59.60
820;DHT22;392;48.838;2.322;2022-11-20T07:10:32;7.40;59.00
820;DHT22;392;48.838;2.322;2022-11-20T07:13:01;7.40;59.50
820;DHT22;392;48.838;2.322;2022-11-20T07:15:28;7.40;59.70
820;DHT22;392;48.838;2.322;2022-11-20T07:17:58;7.30;59.90
820;DHT22;392;48.838;2.322;2022-11-20T07:20:26;7.30;60.40
820;DHT22;392;48.838;2.322;2022-11-20T07:22:54;7.20;60.50
820;DHT22;392;48.838;2.322;2022-11-20T07:25:22;7.20;61.00
820;DHT22;392;48.838;2.322;2022-11-20T07:27:49;7.30;61.30
820;DHT22;392;48.838;2.322;2022-11-20T07:30:18;7.30;61.00
820;DHT22;392;48.838;2.322;2022-11-20T07:32:47;7.40;59.90
820;DHT22;392;48.838;2.322;2022-11-20T07:35:14;7.30;59.60
820;DHT22;392;48.838;2.322;2022-11-20T07:37:42;7.30;59.90
820;DHT22;392;48.838;2.322;2022-11-20T07:40:10;7.30;60.20
820;DHT22;392;48.838;2.322;2022-11-20T07:42:38;7.40;59.50
820;DHT22;392;48.838;2.322;2022-11-20T07:45:06;7.30;58.80
820;DHT22;392;48.838;2.322;2022-11-20T07:47:36;7.40;58.50
820;DHT22;392;48.838;2.322;2022-11-20T07:50:04;7.40;57.80
820;DHT22;392;48.838;2.322;2022-11-20T07:52:33;7.40;57.10
820;DHT22;392;48.838;2.322;2022-11-20T07:55:00;7.40;57.10
820;DHT22;392;48.838;2.322;2022-11-20T07:57:27;7.50;56.30
820;DHT22;392;48.838;2.322;2022-11-20T07:59:54;7.60;55.30
820;DHT22;392;48.838;2.322;2022-11-20T08:02:22;7.60;55.20
820;DHT22;392;48.838;2.322;2022-11-20T08:04:51;7.70;54.30
820;DHT22;392;48.838;2.322;2022-11-20T08:07:19;7.70;53.80
820;DHT22;392;48.838;2.322;2022-11-20T08:09:46;7.80;53.60
820;DHT22;392;48.838;2.322;2022-11-20T08:12:17;7.80;52.90
820;DHT22;392;48.838;2.322;2022-11-20T08:15:11;7.90;52.80
820;DHT22;392;48.838;2.322;2022-11-20T08:17:39;7.80;52.00
820;DHT22;392;48.838;2.322;2022-11-20T08:20:08;7.80;52.40
820;DHT22;392;48.838;2.322;2022-11-20T08:22:36;7.70;52.60
820;DHT22;392;48.838;2.322;2022-11-20T08:25:04;7.70;53.30
820;DHT22;392;48.838;2.322;2022-11-20T08:27:32;7.70;53.90
820;DHT22;392;48.838;2.322;2022-11-20T08:29:59;7.70;54.60
820;DHT22;392;48.838;2.322;2022-11-20T08:32:27;7.60;55.40
820;DHT22;392;48.838;2.322;2022-11-20T08:34:54;7.60;56.80
820;DHT22;392;48.838;2.322;2022-11-20T08:37:22;7.60;56.70
820;DHT22;392;48.838;2.322;2022-11-20T08:39:50;7.70;56.40
820;DHT22;392;48.838;2.322;2022-11-20T08:42:19;7.80;56.60
820;DHT22;392;48.838;2.322;2022-11-20T08:44:46;7.80;56.70
820;DHT22;392;48.838;2.322;2022-11-20T08:47:13;7.90;56.30
820;DHT22;392;48.838;2.322;2022-11-20T08:49:40;8.00;55.60
820;DHT22;392;48.838;2.322;2022-11-20T08:52:08;8.00;56.50
820;DHT22;392;48.838;2.322;2022-11-20T08:54:36;8.00;55.70
820;DHT22;392;48.838;2.322;2022-11-20T08:57:04;8.10;57.10
820;DHT22;392;48.838;2.322;2022-11-20T08:59:31;8.10;57.70
820;DHT22;392;48.838;2.322;2022-11-20T09:01:58;8.20;59.70
820;DHT22;392;48.838;2.322;2022-11-20T09:04:25;8.20;59.80
820;DHT22;392;48.838;2.322;2022-11-20T09:06:53;8.10;59.50
820;DHT22;392;48.838;2.322;2022-11-20T09:09:20;8.10;60.60
820;DHT22;392;48.838;2.322;2022-11-20T09:11:49;7.90;62.00
820;DHT22;392;48.838;2.322;2022-11-20T09:14:16;7.90;62.50
820;DHT22;392;48.838;2.322;2022-11-20T09:16:44;7.90;62.80
820;DHT22;392;48.838;2.322;2022-11-20T09:19:12;8.00;63.20
820;DHT22;392;48.838;2.322;2022-11-20T09:21:40;8.00;62.70
820;DHT22;392;48.838;2.322;2022-11-20T09:24:07;8.00;63.80
820;DHT22;392;48.838;2.322;2022-11-20T09:26:34;8.00;63.90
820;DHT22;392;48.838;2.322;2022-11-20T09:29:03;7.90;65.10
820;DHT22;392;48.838;2.322;2022-11-20T09:31:31;7.90;65.90
820;DHT22;392;48.838;2.322;2022-11-20T09:33:59;7.90;66.00
820;DHT22;392;48.838;2.322;2022-11-20T09:36:26;7.80;67.60
820;DHT22;392;48.838;2.322;2022-11-20T09:38:53;7.80;68.20
820;DHT22;392;48.838;2.322;2022-11-20T09:41:36;7.80;69.10
820;DHT22;392;48.838;2.322;2022-11-20T09:44:35;7.90;69.60
820;DHT22;392;48.838;2.322;2022-11-20T09:47:14;7.90;70.30
820;DHT22;392;48.838;2.322;2022-11-20T09:49:57;7.80;70.20
820;DHT22;392;48.838;2.322;2022-11-20T09:52:36;7.70;71.00
820;DHT22;392;48.838;2.322;2022-11-20T09:55:09;7.60;72.70
820;DHT22;392;48.838;2.322;2022-11-20T09:57:40;7.70;74.00
820;DHT22;392;48.838;2.322;2022-11-20T10:00:12;7.60;74.20
820;DHT22;392;48.838;2.322;2022-11-20T10:02:44;7.60;75.10
820;DHT22;392;48.838;2.322;2022-11-20T10:05:18;7.70;75.50
820;DHT22;392;48.838;2.322;2022-11-20T10:07:51;7.80;75.50
820;DHT22;392;48.838;2.322;2022-11-20T10:10:29;7.80;75.90
820;DHT22;392;48.838;2.322;2022-11-20T10:13:11;7.80;77.10
820;DHT22;392;48.838;2.322;2022-11-20T10:15:54;7.90;77.90
820;DHT22;392;48.838;2.322;2022-11-20T10:18:40;7.80;78.00
820;DHT22;392;48.838;2.322;2022-11-20T10:21:20;7.80;79.90
820;DHT22;392;48.838;2.322;2022-11-20T10:24:03;7.90;81.00
820;DHT22;392;48.838;2.322;2022-11-20T10:26:58;7.90;81.90
820;DHT22;392;48.838;2.322;2022-11-20T10:29:33;8.00;83.40
820;DHT22;392;48.838;2.322;2022-11-20T10:32:07;8.00;84.30
820;DHT22;392;48.838;2.322;2022-11-20T10:34:46;8.10;85.00
820;DHT22;392;48.838;2.322;2022-11-20T10:37:19;8.20;85.50
820;DHT22;392;48.838;2.322;2022-11-20T10:39:54;8.20;85.70
820;DHT22;392;48.838;2.322;2022-11-20T10:42:29;8.40;86.30
820;DHT22;392;48.838;2.322;2022-11-20T10:45:04;8.60;85.90
820;DHT22;392;48.838;2.322;2022-11-20T10:47:42;8.70;84.40
820;DHT22;392;48.838;2.322;2022-11-20T10:50:11;8.80;82.40
820;DHT22;392;48.838;2.322;2022-11-20T10:52:49;8.80;82.00
820;DHT22;392;48.838;2.322;2022-11-20T10:55:30;8.90;80.60
820;DHT22;392;48.838;2.322;2022-11-20T10:58:07;9.00;79.80
820;DHT22;392;48.838;2.322;2022-11-20T11:00:38;9.00;79.50
820;DHT22;392;48.838;2.322;2022-11-20T11:03:20;9.10;79.00
820;DHT22;392;48.838;2.322;2022-11-20T11:05:51;9.10;79.90
820;DHT22;392;48.838;2.322;2022-11-20T11:08:23;9.20;81.00
820;DHT22;392;48.838;2.322;2022-11-20T11:10:55;9.20;82.20
820;DHT22;392;48.838;2.322;2022-11-20T11:13:26;9.20;83.20
820;DHT22;392;48.838;2.322;2022-11-20T11:15:55;9.20;83.80
820;DHT22;392;48.838;2.322;2022-11-20T11:18:26;9.20;83.70
820;DHT22;392;48.838;2.322;2022-11-20T11:20:56;9.30;83.90
820;DHT22;392;48.838;2.322;2022-11-20T11:23:32;9.30;83.70
820;DHT22;392;48.838;2.322;2022-11-20T11:26:01;9.30;83.50
820;DHT22;392;48.838;2.322;2022-11-20T11:28:31;9.30;83.40
820;DHT22;392;48.838;2.322;2022-11-20T11:30:59;9.30;83.20
820;DHT22;392;48.838;2.322;2022-11-20T11:33:29;9.20;83.10
820;DHT22;392;48.838;2.322;2022-11-20T11:36:00;9.20;83.00
820;DHT22;392;48.838;2.322;2022-11-20T11:38:32;9.20;82.80
820;DHT22;392;48.838;2.322;2022-11-20T11:41:03;9.20;81.90
820;DHT22;392;48.838;2.322;2022-11-20T11:43:34;9.20;80.40
820;DHT22;392;48.838;2.322;2022-11-20T11:46:27;9.20;80.00
820;DHT22;392;48.838;2.322;2022-11-20T11:49:11;9.10;79.80
820;DHT22;392;48.838;2.322;2022-11-20T11:51:50;9.10;78.90
820;DHT22;392;48.838;2.322;2022-11-20T11:54:30;9.10;78.10
820;DHT22;392;48.838;2.322;2022-11-20T11:57:05;9.20;77.90
820;DHT22;392;48.838;2.322;2022-11-20T11:59:47;9.20;77.40
820;DHT22;392;48.838;2.322;2022-11-20T12:02:34;9.20;77.40
820;DHT22;392;48.838;2.322;2022-11-20T12:05:13;9.20;76.70
820;DHT22;392;48.838;2.322;2022-11-20T12:07:47;9.20;76.20
820;DHT22;392;48.838;2.322;2022-11-20T12:10:20;9.20;76.40
820;DHT22;392;48.838;2.322;2022-11-20T12:12:52;9.20;76.70
820;DHT22;392;48.838;2.322;2022-11-20T12:15:28;9.20;77.30
820;DHT22;392;48.838;2.322;2022-11-20T12:17:57;9.20;77.30
820;DHT22;392;48.838;2.322;2022-11-20T12:20:29;9.30;76.80
820;DHT22;392;48.838;2.322;2022-11-20T12:23:04;9.40;76.30
820;DHT22;392;48.838;2.322;2022-11-20T12:25:36;9.40;75.80
820;DHT22;392;48.838;2.322;2022-11-20T12:28:16;9.50;75.00
820;DHT22;392;48.838;2.322;2022-11-20T12:34:20;9.70;73.30
820;DHT22;392;48.838;2.322;2022-11-20T12:37:02;9.90;72.00
820;DHT22;392;48.838;2.322;2022-11-20T12:39:41;9.90;70.80
820;DHT22;392;48.838;2.322;2022-11-20T12:42:27;9.90;70.60
820;DHT22;392;48.838;2.322;2022-11-20T12:45:50;9.80;70.80
820;DHT22;392;48.838;2.322;2022-11-20T12:51:38;9.70;73.40
820;DHT22;392;48.838;2.322;2022-11-20T12:57:24;9.70;77.20
820;DHT22;392;48.838;2.322;2022-11-20T13:00:13;9.70;78.60
820;DHT22;392;48.838;2.322;2022-11-20T13:05:53;9.70;81.50
820;DHT22;392;48.838;2.322;2022-11-20T13:08:27;9.60;81.50
820;DHT22;392;48.838;2.322;2022-11-20T13:11:01;9.60;82.70
820;DHT22;392;48.838;2.322;2022-11-20T13:13:42;9.60;83.80
820;DHT22;392;48.838;2.322;2022-11-20T13:16:19;9.70;85.10
820;DHT22;392;48.838;2.322;2022-11-20T13:18:50;9.80;86.50
820;DHT22;392;48.838;2.322;2022-11-20T13:21:20;9.90;85.90
820;DHT22;392;48.838;2.322;2022-11-20T13:23:48;10.00;82.80
820;DHT22;392;48.838;2.322;2022-11-20T13:26:19;10.10;81.50
820;DHT22;392;48.838;2.322;2022-11-20T13:28:59;10.20;80.30
820;DHT22;392;48.838;2.322;2022-11-20T13:31:31;10.20;78.20
820;DHT22;392;48.838;2.322;2022-11-20T13:34:00;10.20;77.40
820;DHT22;392;48.838;2.322;2022-11-20T13:36:30;10.20;77.30
820;DHT22;392;48.838;2.322;2022-11-20T13:38:58;10.20;77.00
820;DHT22;392;48.838;2.322;2022-11-20T13:41:29;10.30;77.30
820;DHT22;392;48.838;2.322;2022-11-20T13:44:09;10.30;77.10
820;DHT22;392;48.838;2.322;2022-11-20T13:46:40;10.40;77.20
820;DHT22;392;48.838;2.322;2022-11-20T13:49:10;10.50;76.50
820;DHT22;392;48.838;2.322;2022-11-20T13:51:47;10.50;75.50
820;DHT22;392;48.838;2.322;2022-11-20T13:57:42;10.70;75.10
820;DHT22;392;48.838;2.322;2022-11-20T14:00:21;10.80;75.10
820;DHT22;392;48.838;2.322;2022-11-20T14:02:59;10.80;74.30
820;DHT22;392;48.838;2.322;2022-11-20T14:05:32;10.90;73.80
820;DHT22;392;48.838;2.322;2022-11-20T14:08:03;11.00;73.60
820;DHT22;392;48.838;2.322;2022-11-20T14:10:31;11.10;73.00
820;DHT22;392;48.838;2.322;2022-11-20T14:13:10;11.20;71.80
820;DHT22;392;48.838;2.322;2022-11-20T14:15:38;11.20;71.50
820;DHT22;392;48.838;2.322;2022-11-20T14:18:12;11.30;70.70
820;DHT22;392;48.838;2.322;2022-11-20T14:20:42;11.30;69.60
820;DHT22;392;48.838;2.322;2022-11-20T14:23:10;11.30;69.60
820;DHT22;392;48.838;2.322;2022-11-20T14:25:42;11.30;69.90
820;DHT22;392;48.838;2.322;2022-11-20T14:28:20;11.40;69.80
820;DHT22;392;48.838;2.322;2022-11-20T14:30:52;11.40;69.80
820;DHT22;392;48.838;2.322;2022-11-20T14:33:20;11.40;69.80
820;DHT22;392;48.838;2.322;2022-11-20T14:35:52;11.50;69.80
820;DHT22;392;48.838;2.322;2022-11-20T14:38:23;11.50;68.90
820;DHT22;392;48.838;2.322;2022-11-20T14:40:52;11.60;69.00
820;DHT22;392;48.838;2.322;2022-11-20T14:43:23;11.60;68.00
820;DHT22;392;48.838;2.322;2022-11-20T14:45:58;11.70;67.40
820;DHT22;392;48.838;2.322;2022-11-20T14:48:30;11.60;65.50
820;DHT22;392;48.838;2.322;2022-11-20T14:50:59;11.70;65.70
820;DHT22;392;48.838;2.322;2022-11-20T14:53:26;11.70;66.10
820;DHT22;392;48.838;2.322;2022-11-20T14:55:56;11.80;65.50
820;DHT22;392;48.838;2.322;2022-11-20T14:58:27;11.80;64.20
820;DHT22;392;48.838;2.322;2022-11-20T15:00:56;11.70;63.10
820;DHT22;392;48.838;2.322;2022-11-20T15:03:31;11.70;63.60
820;DHT22;392;48.838;2.322;2022-11-20T15:06:00;11.70;64.20
820;DHT22;392;48.838;2.322;2022-11-20T15:08:27;11.60;64.60
820;DHT22;392;48.838;2.322;2022-11-20T15:10:55;11.60;65.10
820;DHT22;392;48.838;2.322;2022-11-20T15:13:30;11.60;65.50
820;DHT22;392;48.838;2.322;2022-11-20T15:16:00;11.50;66.10
820;DHT22;392;48.838;2.322;2022-11-20T15:18:30;11.50;66.50
820;DHT22;392;48.838;2.322;2022-11-20T15:21:01;11.50;66.80
820;DHT22;392;48.838;2.322;2022-11-20T15:23:30;11.50;68.80
820;DHT22;392;48.838;2.322;2022-11-20T15:25:57;11.60;70.10
820;DHT22;392;48.838;2.322;2022-11-20T15:28:31;11.60;69.00
820;DHT22;392;48.838;2.322;2022-11-20T15:31:00;11.60;67.70
820;DHT22;392;48.838;2.322;2022-11-20T15:33:29;11.60;64.60
820;DHT22;392;48.838;2.322;2022-11-20T15:35:56;11.50;63.50
820;DHT22;392;48.838;2.322;2022-11-20T15:38:24;11.50;62.80
820;DHT22;392;48.838;2.322;2022-11-20T15:40:51;11.50;62.20
820;DHT22;392;48.838;2.322;2022-11-20T15:43:18;11.50;61.30
820;DHT22;392;48.838;2.322;2022-11-20T15:45:50;11.50;60.40
820;DHT22;392;48.838;2.322;2022-11-20T15:48:21;11.50;60.20
820;DHT22;392;48.838;2.322;2022-11-20T15:50:52;11.50;59.00
820;DHT22;392;48.838;2.322;2022-11-20T15:53:22;11.50;56.80
820;DHT22;392;48.838;2.322;2022-11-20T15:55:49;11.50;55.90
820;DHT22;392;48.838;2.322;2022-11-20T15:58:17;11.40;53.80
820;DHT22;392;48.838;2.322;2022-11-20T16:00:45;11.40;51.80
820;DHT22;392;48.838;2.322;2022-11-20T16:03:15;11.30;50.00
820;DHT22;392;48.838;2.322;2022-11-20T16:05:43;11.30;48.40
820;DHT22;392;48.838;2.322;2022-11-20T16:08:11;11.20;48.10
820;DHT22;392;48.838;2.322;2022-11-20T16:10:38;11.20;48.10
820;DHT22;392;48.838;2.322;2022-11-20T16:13:12;11.20;48.30
820;DHT22;392;48.838;2.322;2022-11-20T16:16:01;11.10;47.60
820;DHT22;392;48.838;2.322;2022-11-20T16:18:31;11.10;48.00
820;DHT22;392;48.838;2.322;2022-11-20T16:20:59;11.10;48.40
820;DHT22;392;48.838;2.322;2022-11-20T16:23:26;11.00;48.70
820;DHT22;392;48.838;2.322;2022-11-20T16:25:54;11.00;49.40
820;DHT22;392;48.838;2.322;2022-11-20T16:28:21;11.00;49.70
820;DHT22;392;48.838;2.322;2022-11-20T16:30:48;11.00;49.70
820;DHT22;392;48.838;2.322;2022-11-20T16:33:17;10.90;50.00
820;DHT22;392;48.838;2.322;2022-11-20T16:35:44;10.90;50.70
820;DHT22;392;48.838;2.322;2022-11-20T16:38:12;10.90;51.30
820;DHT22;392;48.838;2.322;2022-11-20T16:40:39;10.80;51.80
820;DHT22;392;48.838;2.322;2022-11-20T16:43:08;10.80;52.40
820;DHT22;392;48.838;2.322;2022-11-20T16:45:41;10.80;53.00
820;DHT22;392;48.838;2.322;2022-11-20T16:48:14;10.70;53.50
820;DHT22;392;48.838;2.322;2022-11-20T16:50:48;10.70;54.00
820;DHT22;392;48.838;2.322;2022-11-20T16:53:17;10.70;54.20
820;DHT22;392;48.838;2.322;2022-11-20T16:55:45;10.60;54.20
820;DHT22;392;48.838;2.322;2022-11-20T16:58:13;10.60;54.40
820;DHT22;392;48.838;2.322;2022-11-20T17:00:41;10.60;54.60
820;DHT22;392;48.838;2.322;2022-11-20T17:03:08;10.50;54.70
820;DHT22;392;48.838;2.322;2022-11-20T17:05:36;10.50;54.60
820;DHT22;392;48.838;2.322;2022-11-20T17:08:04;10.50;54.50
820;DHT22;392;48.838;2.322;2022-11-20T17:10:32;10.50;54.50
820;DHT22;392;48.838;2.322;2022-11-20T17:12:59;10.50;54.00
820;DHT22;392;48.838;2.322;2022-11-20T17:15:26;10.50;54.10
820;DHT22;392;48.838;2.322;2022-11-20T17:17:54;10.40;54.00
820;DHT22;392;48.838;2.322;2022-11-20T17:20:21;10.40;53.90
820;DHT22;392;48.838;2.322;2022-11-20T17:22:49;10.50;54.10
820;DHT22;392;48.838;2.322;2022-11-20T17:25:17;10.40;54.40